createdAt,value
2017-04-12T00:00:02.218Z,8.56
2017-04-12T00:15:02.196Z,8.6
2017-04-12T00:30:02.406Z,8.61
2017-04-12T00:45:02.674Z,8.65
2017-04-12T01:00:02.785Z,8.75
2017-04-12T01:15:03.294Z,8.74
2017-04-12T01:30:02.945Z,8.83
2017-04-12T01:45:02.910Z,8.83
2017-04-12T02:00:02.627Z,8.82
2017-04-12T02:15:02.596Z,8.76
2017-04-12T02:30:02.463Z,8.72
2017-04-12T02:45:02.850Z,8.7
2017-04-12T03:00:02.874Z,8.7
2017-04-12T03:15:02.333Z,8.68
2017-04-12T03:30:02.819Z,8.68
2017-04-12T03:45:02.705Z,8.74
2017-04-12T04:00:02.773Z,8.75
2017-04-12T04:15:02.656Z,8.75
2017-04-12T04:30:03.043Z,8.76
2017-04-12T04:45:03.181Z,8.78
2017-04-12T05:00:02.937Z,8.77
2017-04-12T05:15:02.705Z,8.83
2017-04-12T05:30:02.752Z,8.92
2017-04-12T05:45:02.357Z,9.04
2017-04-12T06:00:03.067Z,9.07
2017-04-12T06:15:03.153Z,9.25
2017-04-12T06:30:02.245Z,9.47
2017-04-12T06:45:02.547Z,9.85
2017-04-12T07:00:02.738Z,10.13
2017-04-12T07:15:02.303Z,10.21
2017-04-12T07:30:02.820Z,10.31
2017-04-12T07:45:02.910Z,10.59
2017-04-12T08:00:02.205Z,10.9
2017-04-12T08:30:03.142Z,10.68
2017-04-12T08:45:03.080Z,10.7
2017-04-12T09:00:02.529Z,10.92
2017-04-12T09:15:02.633Z,11.19
2017-04-12T09:30:02.562Z,11.48
2017-04-12T09:45:03.005Z,11.69
2017-04-12T10:00:02.598Z,12.17
2017-04-12T10:15:02.620Z,11.83
2017-04-12T10:30:02.538Z,11.92
2017-04-12T10:45:02.465Z,12.11
2017-04-12T11:00:02.550Z,12.29
2017-04-12T11:15:02.906Z,12.6
2017-04-12T11:30:02.408Z,12.88
2017-04-12T11:45:03.140Z,12.25
2017-04-12T12:00:03.356Z,12.1
2017-04-12T12:15:02.208Z,12.03
2017-04-12T12:30:02.514Z,11.81
2017-04-12T12:45:02.417Z,11.96
2017-04-12T13:00:02.276Z,11.82
2017-04-12T13:15:02.183Z,11.76
2017-04-12T13:30:02.913Z,11.58
2017-04-12T13:45:02.988Z,11.75
2017-04-12T14:00:02.415Z,11.92
2017-04-12T14:15:03.433Z,11.31
2017-04-12T14:30:02.966Z,10.94
2017-04-12T14:45:02.300Z,10.85
2017-04-12T15:00:02.579Z,10.1
2017-04-12T15:15:02.986Z,9.61
2017-04-12T15:30:02.485Z,9.46
2017-04-12T15:45:02.398Z,9.41
2017-04-12T16:00:03.126Z,9.19
2017-04-12T16:15:02.510Z,9.02
2017-04-12T16:30:02.355Z,8.94
2017-04-12T16:45:02.816Z,8.83
2017-04-12T17:00:02.456Z,8.72
2017-04-12T17:15:02.803Z,8.62
2017-04-12T17:30:02.900Z,8.5
2017-04-12T17:45:03.403Z,8.19
2017-04-12T18:00:02.515Z,8.02
2017-04-12T18:15:02.894Z,7.89
2017-04-12T18:30:03.048Z,7.84
2017-04-12T18:45:02.975Z,7.75
2017-04-12T19:00:03.303Z,7.7
2017-04-12T19:15:02.646Z,7.71
2017-04-12T19:30:02.475Z,7.76
2017-04-12T19:45:02.579Z,7.81
2017-04-12T20:00:02.685Z,7.76
2017-04-12T20:15:02.886Z,7.76
2017-04-12T20:30:03.307Z,7.6
2017-04-12T20:45:02.259Z,7.55
2017-04-12T21:00:02.777Z,7.48
2017-04-12T21:15:03.048Z,7.48
2017-04-12T21:30:02.263Z,7.47
2017-04-12T21:45:02.551Z,7.38
2017-04-12T22:00:02.492Z,7.37
2017-04-12T22:15:03.140Z,7.49
2017-04-12T22:30:03.195Z,7.5
2017-04-12T22:45:02.852Z,7.5
2017-04-12T23:00:02.875Z,7.44
2017-04-12T23:15:02.983Z,7.45
2017-04-12T23:30:02.654Z,7.35
2017-04-12T23:45:02.963Z,7.3
